Time;durP1;ratioP1;P1;durP2;ratioP2;P2;SDS_P1;SDS_P2;PMS_P1;PMS_P2;Temp;Humidity;BMP_temperature;BMP_pressure;BME280_temperature;BME280_humidity;BME280_pressure;Samples;Min_cycle;Max_cycle;Signal;HPM_P1;HPM_P2
2022/07/01 00:00:43;;;;;;;2.70;1.82;;;;;;;18.44;100.00;99760.64;1716312;82;21097;-54
2022/07/01 00:03:09;;;;;;;1.87;1.40;;;;;;;18.42;100.00;99755.31;1708482;82;22580;-54
2022/07/01 00:05:36;;;;;;;1.65;1.35;;;;;;;18.40;100.00;99759.14;1713176;82;21077;-56
2022/07/01 00:08:04;;;;;;;2.15;1.40;;;;;;;18.41;100.00;99760.88;1707694;82;21648;-54
2022/07/01 00:10:31;;;;;;;3.05;1.37;;;;;;;18.41;100.00;99761.75;1714570;82;21121;-55
2022/07/01 00:12:57;;;;;;;4.92;1.62;;;;;;;18.43;100.00;99754.33;1710553;82;21071;-56
2022/07/01 00:15:24;;;;;;;3.33;1.92;;;;;;;18.46;100.00;99755.42;1711340;82;21558;-54
2022/07/01 00:17:50;;;;;;;4.58;1.55;;;;;;;18.50;100.00;99756.05;1708602;82;21019;-53
2022/07/01 00:20:18;;;;;;;3.77;1.62;;;;;;;18.50;100.00;99751.47;1708942;82;21428;-53
2022/07/01 00:22:44;;;;;;;8.58;1.22;;;;;;;18.49;100.00;99751.59;1709979;82;21164;-54
2022/07/01 00:25:11;;;;;;;2.72;1.50;;;;;;;18.47;100.00;99748.98;1706234;82;21559;-52
2022/07/01 00:27:40;;;;;;;2.35;1.30;;;;;;;18.44;100.00;99753.83;1714852;82;21130;-54
2022/07/01 00:30:09;;;;;;;2.95;1.30;;;;;;;18.40;100.00;99748.23;1709007;82;21057;-53
2022/07/01 00:32:36;;;;;;;1.90;1.22;;;;;;;18.36;100.00;99744.91;1714161;82;21772;-53
2022/07/01 00:35:04;;;;;;;4.30;1.50;;;;;;;18.34;100.00;99746.89;1707247;82;21109;-53
2022/07/01 00:37:31;;;;;;;4.58;2.08;;;;;;;18.31;100.00;99743.52;1709850;82;21137;-54
2022/07/01 00:39:58;;;;;;;2.98;1.30;;;;;;;18.26;100.00;99749.85;1713613;82;22626;-53
2022/07/01 00:42:24;;;;;;;2.85;1.37;;;;;;;18.20;100.00;99751.71;1708101;82;21056;-54
2022/07/01 00:44:51;;;;;;;4.37;1.60;;;;;;;18.14;100.00;99751.19;1706304;82;21045;-53
2022/07/01 00:47:17;;;;;;;1.65;1.10;;;;;;;18.13;100.00;99749.45;1709880;82;21452;-54
2022/07/01 00:49:44;;;;;;;3.27;1.57;;;;;;;18.14;100.00;99753.05;1710875;82;21769;-54
2022/07/01 00:52:10;;;;;;;3.22;1.60;;;;;;;18.15;100.00;99754.78;1672994;84;22998;-53
2022/07/01 00:54:37;;;;;;;2.83;1.42;;;;;;;18.18;100.00;99749.59;1676829;84;21081;-53
2022/07/01 00:57:10;;;;;;;8.23;1.85;;;;;;;18.19;100.00;99753.56;1670008;84;21110;-53
2022/07/01 00:59:38;;;;;;;5.58;1.00;;;;;;;18.19;100.00;99752.70;1669257;84;21411;-54
2022/07/01 01:02:06;;;;;;;3.85;1.47;;;;;;;18.19;100.00;99750.84;1673171;84;21146;-53
2022/07/01 01:04:33;;;;;;;2.00;1.30;;;;;;;18.18;100.00;99759.13;1670785;84;21250;-53
2022/07/01 01:07:01;;;;;;;2.80;2.02;;;;;;;18.17;100.00;99762.84;1671044;84;21125;-53
2022/07/01 01:09:30;;;;;;;2.12;1.82;;;;;;;18.14;100.00;99770.75;1680072;84;21077;-55
2022/07/01 01:11:57;;;;;;;2.92;1.60;;;;;;;18.05;100.00;99763.30;1649689;84;21076;-55
2022/07/01 01:14:25;;;;;;;4.95;1.20;;;;;;;17.97;100.00;99769.36;1648873;85;21116;-53
2022/07/01 01:16:51;;;;;;;2.77;1.77;;;;;;;17.93;100.00;99761.07;1650518;85;21172;-53
2022/07/01 01:19:18;;;;;;;5.62;1.52;;;;;;;17.91;100.00;99768.98;1648404;85;21558;-54
2022/07/01 01:21:44;;;;;;;1.50;1.40;;;;;;;17.87;100.00;99756.08;1647414;85;21561;-53
2022/07/01 01:24:11;;;;;;;4.42;1.20;;;;;;;17.88;100.00;99771.44;1650197;85;21506;-53
2022/07/01 01:26:38;;;;;;;4.65;1.70;;;;;;;17.90;100.00;99759.94;1652192;85;21076;-53
2022/07/01 01:29:07;;;;;;;6.45;1.47;;;;;;;17.91;100.00;99760.31;1646634;85;21252;-53
2022/07/01 01:31:35;;;;;;;2.47;1.12;;;;;;;17.92;100.00;99759.83;1647797;85;21119;-53
2022/07/01 01:34:02;;;;;;;5.37;1.32;;;;;;;17.90;100.00;99755.85;1690720;83;21102;-54
2022/07/01 01:36:30;;;;;;;4.30;1.47;;;;;;;17.92;100.00;99764.78;1693923;83;21155;-55
2022/07/01 01:39:02;;;;;;;5.03;1.72;;;;;;;17.96;100.00;99766.75;1693861;83;21414;-54
2022/07/01 01:41:24;;;;;;;9.03;1.50;;;;;;;17.96;100.00;99764.02;1691283;83;21663;-54
2022/07/01 01:43:51;;;;;;;7.20;1.67;;;;;;;17.94;100.00;99765.53;1691154;83;21572;-54
2022/07/01 01:46:17;;;;;;;6.03;1.70;;;;;;;17.93;100.00;99766.52;1691406;83;21655;-53
2022/07/01 01:48:44;;;;;;;3.90;1.27;;;;;;;17.91;100.00;99762.17;1693038;83;21561;-54
2022/07/01 01:51:10;;;;;;;1.45;1.10;;;;;;;17.86;100.00;99766.63;1692306;83;21456;-54
2022/07/01 01:53:36;;;;;;;4.25;1.40;;;;;;;17.81;100.00;99766.09;1693282;83;21137;-55
2022/07/01 01:56:04;;;;;;;1.30;1.20;;;;;;;17.78;100.00;99764.47;1688843;83;21119;-53
2022/07/01 01:58:31;;;;;;;5.70;2.17;;;;;;;17.80;100.00;99773.02;1687820;83;21118;-54
2022/07/01 02:00:57;;;;;;;4.97;1.20;;;;;;;17.80;100.00;99773.02;1693508;83;21039;-53
2022/07/01 02:03:24;;;;;;;4.10;1.30;;;;;;;17.81;100.00;99775.62;1694115;83;21082;-55
2022/07/01 02:05:50;;;;;;;4.17;1.30;;;;;;;17.79;100.00;99773.51;1692544;83;21599;-52
2022/07/01 02:08:17;;;;;;;2.77;1.20;;;;;;;17.76;100.00;99783.30;1694758;83;21636;-53
2022/07/01 02:10:44;;;;;;;3.15;1.92;;;;;;;17.69;100.00;99784.77;1699431;82;21076;-54
2022/07/01 02:13:12;;;;;;;1.92;1.20;;;;;;;17.60;100.00;99784.07;1716029;82;21546;-53
2022/07/01 02:15:39;;;;;;;5.15;1.45;;;;;;;17.54;100.00;99781.80;1677089;84;21477;-55
2022/07/01 02:18:06;;;;;;;1.12;1.02;;;;;;;17.52;100.00;99781.07;1673120;84;21846;-53
2022/07/01 02:20:33;;;;;;;4.15;1.17;;;;;;;17.56;100.00;99782.55;1672276;84;21037;-53
2022/07/01 02:23:00;;;;;;;4.58;1.42;;;;;;;17.61;100.00;99781.20;1673284;84;21468;-53
2022/07/01 02:25:26;;;;;;;2.65;1.30;;;;;;;17.66;100.00;99784.98;1674879;84;21635;-52
2022/07/01 02:27:53;;;;;;;2.75;1.30;;;;;;;17.66;100.00;99783.13;1674228;84;21384;-52
2022/07/01 02:30:19;;;;;;;1.50;1.20;;;;;;;17.65;100.00;99776.44;1679411;84;21539;-54
2022/07/01 02:32:46;;;;;;;2.90;1.27;;;;;;;17.63;100.00;99775.69;1675021;84;21175;-53
2022/07/01 02:35:13;;;;;;;4.12;1.47;;;;;;;17.63;100.00;99780.63;1675768;84;21084;-55
2022/07/01 02:37:40;;;;;;;5.30;1.10;;;;;;;17.66;100.00;99779.05;1673861;84;21410;-52
2022/07/01 02:40:07;;;;;;;5.90;1.35;;;;;;;17.70;100.00;99776.45;1670697;84;21528;-54
2022/07/01 02:42:37;;;;;;;3.00;1.35;;;;;;;17.75;100.00;99777.47;1675428;84;21257;-52
2022/07/01 02:45:05;;;;;;;4.25;1.10;;;;;;;17.76;100.00;99780.08;1670837;84;21519;-52
2022/07/01 02:49:32;;;;;;;5.90;1.22;;;;;;;17.86;100.00;99774.80;1783758;78;28368;-53
2022/07/01 02:51:58;;;;;;;4.45;1.12;;;;;;;17.87;100.00;99776.50;1739609;80;21001;-53
2022/07/01 02:54:25;;;;;;;4.72;1.20;;;;;;;17.92;100.00;99778.88;1745832;80;21976;-53
2022/07/01 02:56:51;;;;;;;5.03;1.45;;;;;;;17.94;100.00;99778.28;1742959;80;21336;-55
2022/07/01 02:59:18;;;;;;;5.97;1.40;;;;;;;17.90;100.00;99783.08;1723207;80;20991;-52
2022/07/01 03:01:44;;;;;;;6.78;1.10;;;;;;;17.85;100.00;99781.72;1724094;80;21065;-54
2022/07/01 03:04:11;;;;;;;2.65;1.15;;;;;;;17.78;100.00;99786.25;1722162;80;20994;-55
2022/07/01 03:06:37;;;;;;;3.45;2.22;;;;;;;17.74;100.00;99783.41;1724712;80;21471;-53
2022/07/01 03:09:04;;;;;;;2.90;1.20;;;;;;;17.76;100.00;99784.16;1729458;80;21527;-54
2022/07/01 03:11:30;;;;;;;4.12;1.40;;;;;;;17.83;100.00;99783.19;1740287;80;21590;-53
2022/07/01 03:13:58;;;;;;;4.22;1.30;;;;;;;17.92;100.00;99781.12;1722568;80;21101;-55
2022/07/01 03:16:26;;;;;;;5.62;1.30;;;;;;;18.04;100.00;99779.27;1729358;80;21104;-54
2022/07/01 03:18:53;;;;;;;4.62;1.32;;;;;;;18.14;100.00;99778.43;1727755;80;21545;-55
2022/07/01 03:21:19;;;;;;;2.00;1.32;;;;;;;18.22;100.00;99775.09;1732033;80;21508;-54
2022/07/01 03:23:46;;;;;;;1.47;1.37;;;;;;;18.30;100.00;99782.17;1730590;80;21049;-53
2022/07/01 03:26:14;;;;;;;1.62;1.10;;;;;;;18.34;100.00;99782.31;1724309;80;21144;-56
2022/07/01 03:28:41;;;;;;;2.08;1.50;;;;;;;18.33;100.00;99781.94;1736422;80;21066;-55
2022/07/01 03:31:08;;;;;;;4.85;1.35;;;;;;;18.36;100.00;99782.20;1730376;80;21149;-54
2022/07/01 03:33:34;;;;;;;4.30;1.27;;;;;;;18.40;100.00;99779.58;1738671;80;21037;-55
2022/07/01 03:36:01;;;;;;;1.95;1.37;;;;;;;18.46;100.00;99784.53;1726440;80;21033;-54
2022/07/01 03:38:28;;;;;;;3.83;1.15;;;;;;;18.54;100.00;99775.27;1732093;80;21067;-54
2022/07/01 03:40:54;;;;;;;3.22;1.40;;;;;;;18.64;100.00;99775.40;1728627;80;21355;-53
2022/07/01 03:43:21;;;;;;;1.65;1.52;;;;;;;18.75;100.00;99780.36;1732177;80;21106;-56
2022/07/01 03:45:47;;;;;;;3.98;1.37;;;;;;;18.85;100.00;99786.80;1746740;80;21437;-54
2022/07/01 03:48:15;;;;;;;2.60;2.02;;;;;;;18.97;100.00;99789.00;1731326;80;21034;-54
2022/07/01 03:50:42;;;;;;;2.67;2.58;;;;;;;19.10;100.00;99795.70;1720742;80;21025;-56
2022/07/01 03:55:52;;;;;;;;;;;;;;;19.25;100.00;99799.88;1728927;80;22122;-54
2022/07/01 03:58:19;;;;;;;4.58;3.83;;;;;;;19.37;100.00;99808.91;1728576;80;20218;-56
2022/07/01 04:00:45;;;;;;;4.20;3.87;;;;;;;19.46;100.00;99800.83;1721173;80;21611;-55
2022/07/01 04:03:12;;;;;;;4.37;4.05;;;;;;;19.55;100.00;99795.99;1723683;80;21058;-54
2022/07/01 04:05:40;;;;;;;5.90;5.33;;;;;;;19.64;100.00;99792.98;1716887;80;21021;-54
2022/07/01 04:08:08;;;;;;;7.55;6.95;;;;;;;19.73;100.00;99794.06;1728521;80;21126;-53
2022/07/01 04:10:35;;;;;;;7.95;6.97;;;;;;;19.83;100.00;99800.44;1721570;80;21070;-53
2022/07/01 04:13:01;;;;;;;8.20;7.50;;;;;;;19.94;100.00;99807.23;1722929;80;21309;-56
2022/07/01 04:15:29;;;;;;;6.80;6.17;;;;;;;20.01;100.00;99806.56;1719858;80;21148;-54
2022/07/01 04:17:55;;;;;;;9.25;7.00;;;;;;;20.09;100.00;99812.73;1719889;80;21241;-54
2022/07/01 04:20:21;;;;;;;8.98;7.72;;;;;;;20.15;100.00;99816.32;1697415;80;21623;-55
2022/07/01 04:22:48;;;;;;;8.90;8.03;;;;;;;20.21;100.00;99818.52;1722731;80;21070;-56
2022/07/01 04:25:14;;;;;;;7.42;6.72;;;;;;;20.27;100.00;99817.97;1719869;80;21054;-56
2022/07/01 04:27:41;;;;;;;13.88;7.97;;;;;;;20.32;100.00;99813.48;1720964;80;21168;-54
2022/07/01 04:30:09;;;;;;;6.95;6.45;;;;;;;20.37;100.00;99816.70;1717299;80;21081;-53
2022/07/01 04:32:36;;;;;;;6.45;6.05;;;;;;;20.45;100.00;99813.29;1718946;80;21098;-55
2022/07/01 04:35:04;;;;;;;6.20;5.70;;;;;;;20.53;100.00;99816.21;1721618;80;21093;-55
2022/07/01 04:37:32;;;;;;;6.60;6.08;;;;;;;20.63;100.00;99819.38;1722215;80;21464;-55
2022/07/01 04:39:59;;;;;;;6.10;5.70;;;;;;;20.73;100.00;99814.82;1720685;80;20988;-54
2022/07/01 04:42:25;;;;;;;6.72;6.22;;;;;;;20.83;100.00;99809.90;1731518;80;21030;-55
2022/07/01 04:44:52;;;;;;;5.70;5.30;;;;;;;20.93;100.00;99810.27;1726519;80;21555;-56
2022/07/01 04:47:18;;;;;;;7.70;5.83;;;;;;;21.02;100.00;99803.97;1721157;80;21055;-55
2022/07/01 04:49:45;;;;;;;5.87;5.45;;;;;;;21.10;100.00;99808.75;1711423;80;21059;-55
2022/07/01 04:52:12;;;;;;;6.37;5.87;;;;;;;21.17;100.00;99809.08;1710287;81;21028;-57
2022/07/01 04:54:38;;;;;;;6.80;6.10;;;;;;;21.24;100.00;99807.55;1711015;81;21026;-56
2022/07/01 04:57:05;;;;;;;6.58;5.42;;;;;;;21.29;100.00;99814.82;1709111;81;21489;-55
2022/07/01 04:59:32;;;;;;;6.37;5.90;;;;;;;21.34;100.00;99819.39;1711198;81;21081;-55
2022/07/01 05:01:59;;;;;;;5.22;4.83;;;;;;;21.38;100.00;99811.24;1710200;81;20931;-54
2022/07/01 05:04:27;;;;;;;5.25;4.90;;;;;;;21.42;100.00;99814.94;1725472;81;20987;-53
2022/07/01 05:06:54;;;;;;;4.75;4.35;;;;;;;21.47;100.00;99818.61;1714686;81;20978;-54
2022/07/01 05:09:21;;;;;;;5.25;4.95;;;;;;;21.51;100.00;99826.92;1720353;81;21528;-55
2022/07/01 05:11:47;;;;;;;7.40;6.45;;;;;;;21.55;100.00;99825.61;1713170;81;20939;-56
2022/07/01 05:14:13;;;;;;;6.20;5.83;;;;;;;21.61;100.00;99829.14;1718816;81;21542;-55
2022/07/01 05:16:40;;;;;;;6.65;6.12;;;;;;;21.69;100.00;99827.92;1710527;81;21054;-54
2022/07/01 05:22:01;;;;;;;6.90;5.97;;;;;;;21.82;100.00;99830.41;1712407;81;21916;-56
2022/07/01 05:24:31;;;;;;;7.40;5.50;;;;;;;21.92;100.00;99833.16;1717682;81;21094;-55
2022/07/01 05:26:59;;;;;;;4.37;3.58;;;;;;;22.00;100.00;99828.72;1717216;81;20868;-56
2022/07/01 05:29:26;;;;;;;4.10;3.70;;;;;;;22.09;100.00;99825.11;1718828;81;20935;-56
2022/07/01 05:31:53;;;;;;;3.47;2.22;;;;;;;22.21;100.00;99823.92;1716649;81;20919;-53
2022/07/01 05:34:20;;;;;;;7.53;2.70;;;;;;;22.32;100.00;99820.16;1707341;81;21091;-55
2022/07/01 05:36:46;;;;;;;4.17;2.67;;;;;;;22.43;100.00;99824.12;1713158;81;20919;-54
2022/07/01 05:39:13;;;;;;;3.05;2.55;;;;;;;22.53;100.00;99821.36;1716422;81;20963;-54
2022/07/01 05:41:40;;;;;;;3.25;3.00;;;;;;;22.62;100.00;99821.84;1715269;81;20979;-56
2022/07/01 05:44:06;;;;;;;2.77;1.95;;;;;;;22.72;100.00;99821.28;1713926;81;20927;-55
2022/07/01 05:46:32;;;;;;;2.22;2.02;;;;;;;22.81;100.00;99817.67;1713723;81;21233;-55
2022/07/01 05:48:59;;;;;;;2.52;1.55;;;;;;;22.91;100.00;99813.52;1716194;81;20964;-55
2022/07/01 05:51:26;;;;;;;2.08;1.30;;;;;;;22.99;100.00;99817.75;1659232;84;21125;-55
2022/07/01 05:53:53;;;;;;;4.92;1.40;;;;;;;23.08;100.00;99817.34;1671123;83;21042;-56
2022/07/01 05:56:20;;;;;;;2.77;1.10;;;;;;;23.16;100.00;99818.81;1670621;83;21054;-57
2022/07/01 05:58:46;;;;;;;3.15;1.55;;;;;;;23.25;100.00;99824.77;1671513;83;21738;-58
2022/07/01 06:01:12;;;;;;;1.35;1.00;;;;;;;23.34;100.00;99819.22;1713859;81;21054;-55
2022/07/01 06:03:39;;;;;;;3.08;1.10;;;;;;;23.43;100.00;99815.20;1711965;81;21053;-55
2022/07/01 06:06:05;;;;;;;1.17;1.12;;;;;;;23.48;100.00;99813.70;1711978;81;21607;-55
2022/07/01 06:08:33;;;;;;;0.85;0.80;;;;;;;23.53;100.00;99805.91;1714034;81;21412;-58
2022/07/01 06:11:01;;;;;;;1.20;1.10;;;;;;;23.57;100.00;99811.95;1711215;81;21109;-55
2022/07/01 06:13:29;;;;;;;0.80;0.75;;;;;;;23.60;100.00;99813.02;1712235;81;21145;-55
2022/07/01 06:15:58;;;;;;;1.72;0.80;;;;;;;23.63;100.00;99800.36;1714030;81;21547;-53
2022/07/01 06:18:23;;;;;;;2.90;1.12;;;;;;;23.69;100.00;99806.59;1712711;81;21074;-53
2022/07/01 06:20:50;;;;;;;1.00;0.80;;;;;;;23.75;100.00;99807.33;1715252;81;21360;-56
2022/07/01 06:23:17;;;;;;;2.75;1.32;;;;;;;23.85;100.00;99800.39;1710847;81;21105;-57
2022/07/01 06:25:43;;;;;;;1.12;0.80;;;;;;;23.95;100.00;99799.80;1723819;81;21070;-55
2022/07/01 06:28:10;;;;;;;2.70;0.90;;;;;;;24.04;100.00;99798.34;1711737;81;21199;-57
2022/07/01 06:30:38;;;;;;;2.02;0.85;;;;;;;24.17;100.00;99799.80;1711705;81;21557;-56
2022/07/01 06:33:04;;;;;;;1.05;0.80;;;;;;;24.26;100.00;99801.13;1709094;81;21277;-55
2022/07/01 06:35:31;;;;;;;1.05;0.80;;;;;;;24.35;100.00;99795.17;1714833;81;21420;-57
2022/07/01 06:37:58;;;;;;;0.80;0.80;;;;;;;24.42;100.00;99797.63;1712127;81;21050;-57
2022/07/01 06:40:25;;;;;;;0.80;0.80;;;;;;;24.48;100.00;99796.49;1713966;81;21098;-58
2022/07/01 06:42:53;;;;;;;1.17;1.00;;;;;;;24.51;100.00;99794.77;1707568;81;21105;-57
2022/07/01 06:45:19;;;;;;;2.02;0.93;;;;;;;24.56;100.00;99790.69;1711761;81;21110;-59
2022/07/01 06:47:46;;;;;;;4.47;0.80;;;;;;;24.59;100.00;99783.46;1714079;81;21985;-56
2022/07/01 06:50:12;;;;;;;1.02;0.93;;;;;;;24.65;100.00;99785.59;1718933;80;21062;-57
2022/07/01 06:52:39;;;;;;;1.98;1.07;;;;;;;24.69;100.00;99796.09;1718353;80;21098;-55
2022/07/01 06:55:07;;;;;;;1.25;1.10;;;;;;;24.69;100.00;99793.34;1721909;80;21065;-60
2022/07/01 06:57:33;;;;;;;1.85;0.90;;;;;;;24.70;100.00;99796.45;1720793;80;21050;-55
2022/07/01 07:00:00;;;;;;;5.12;0.95;;;;;;;24.73;100.00;99790.63;1718071;80;21457;-56
2022/07/01 07:02:26;;;;;;;1.00;0.90;;;;;;;24.75;100.00;99788.55;1717468;80;21120;-59
2022/07/01 07:04:57;;;;;;;0.95;0.90;;;;;;;24.77;100.00;99789.77;1718193;80;21421;-57
2022/07/01 07:07:21;;;;;;;0.80;0.80;;;;;;;24.80;100.00;99786.19;1715611;82;21086;-57
2022/07/01 07:09:47;;;;;;;1.00;0.90;;;;;;;24.85;100.00;99796.69;1716263;80;21133;-58
2022/07/01 07:12:14;;;;;;;1.95;0.68;;;;;;;24.86;100.00;99795.16;1724186;80;21615;-58
2022/07/01 07:14:41;;;;;;;2.60;0.80;;;;;;;24.89;100.00;99791.22;1718033;80;21335;-55
2022/07/01 07:17:07;;;;;;;1.80;0.78;;;;;;;24.90;100.00;99788.82;1712725;80;22308;-56
2022/07/01 07:19:34;;;;;;;2.08;0.90;;;;;;;24.95;100.00;99788.34;1721177;80;21327;-56
2022/07/01 07:22:00;;;;;;;1.15;0.78;;;;;;;25.04;100.00;99788.22;1716321;80;21053;-61
2022/07/01 07:24:27;;;;;;;3.12;0.90;;;;;;;25.16;100.00;99788.80;1718568;81;21705;-59
2022/07/01 07:26:53;;;;;;;3.40;0.80;;;;;;;25.26;100.00;99780.72;1720260;80;21042;-57
2022/07/01 07:29:20;;;;;;;1.12;0.80;;;;;;;25.36;100.00;99778.34;1722415;80;21078;-57
2022/07/01 07:31:46;;;;;;;1.20;0.80;;;;;;;25.46;100.00;99784.06;1718672;80;21002;-59
2022/07/01 07:34:12;;;;;;;1.00;0.90;;;;;;;25.54;100.00;99778.58;1721045;80;21140;-57
2022/07/01 07:36:39;;;;;;;0.80;0.70;;;;;;;25.61;100.00;99778.78;1717974;80;21149;-57
2022/07/01 07:39:06;;;;;;;0.90;0.90;;;;;;;25.68;100.00;99774.34;1718565;80;22194;-56
2022/07/01 07:41:32;;;;;;;1.10;0.80;;;;;;;25.80;100.00;99772.09;1719312;80;21499;-57
2022/07/01 07:43:59;;;;;;;0.80;0.80;;;;;;;25.92;100.00;99776.27;1718989;80;21078;-57
2022/07/01 07:46:25;;;;;;;4.90;0.90;;;;;;;26.04;100.00;99778.14;1724539;80;21101;-64
2022/07/01 07:48:52;;;;;;;0.95;0.82;;;;;;;26.14;100.00;99773.31;1716248;80;21092;-56
2022/07/01 07:51:22;;;;;;;1.17;0.90;;;;;;;26.18;100.00;99768.68;1726091;80;21022;-57
2022/07/01 07:53:47;;;;;;;1.15;0.70;;;;;;;26.18;100.00;99766.44;1725524;80;21049;-56
2022/07/01 07:56:14;;;;;;;0.90;0.85;;;;;;;26.19;100.00;99766.27;1730303;80;21061;-56
2022/07/01 07:58:43;;;;;;;0.93;0.70;;;;;;;26.22;100.00;99763.66;1726001;80;21051;-60
2022/07/01 08:01:08;;;;;;;2.85;0.90;;;;;;;26.22;100.00;99765.03;1726820;80;21772;-57
2022/07/01 08:03:35;;;;;;;2.02;0.80;;;;;;;26.22;100.00;99767.28;1727495;80;20926;-57
2022/07/01 08:06:01;;;;;;;2.98;0.80;;;;;;;26.25;100.00;99764.19;1725288;80;20938;-58
2022/07/01 08:08:28;;;;;;;4.10;0.85;;;;;;;26.29;100.00;99766.09;1723514;80;21527;-56
2022/07/01 08:10:54;;;;;;;0.80;0.80;;;;;;;26.33;100.00;99761.45;1724898;80;20954;-58
2022/07/01 08:13:21;;;;;;;4.10;0.80;;;;;;;26.38;100.00;99763.67;1729360;80;22327;-56
2022/07/01 08:15:47;;;;;;;2.90;0.75;;;;;;;26.45;100.00;99758.34;1730670;80;21321;-57
2022/07/01 08:18:14;;;;;;;1.95;0.90;;;;;;;26.52;100.00;99753.31;1724984;80;21036;-56
2022/07/01 08:20:40;;;;;;;1.15;0.72;;;;;;;26.59;100.00;99754.84;1721961;80;21018;-56
2022/07/01 08:23:07;;;;;;;1.87;1.10;;;;;;;26.61;100.00;99752.27;1733028;80;21502;-55
2022/07/01 08:25:33;;;;;;;1.35;0.88;;;;;;;26.65;100.00;99757.75;1726143;80;21577;-54
2022/07/01 08:28:02;;;;;;;2.62;0.80;;;;;;;26.73;100.00;99760.48;1725350;80;21057;-56
2022/07/01 08:30:28;;;;;;;2.12;0.70;;;;;;;26.83;100.00;99754.77;1729297;80;21042;-56
2022/07/01 08:32:54;;;;;;;1.10;0.70;;;;;;;26.93;100.00;99754.59;1727467;80;21085;-55
2022/07/01 08:35:21;;;;;;;2.95;0.80;;;;;;;26.98;100.00;99752.15;1723659;80;21514;-56
2022/07/01 08:37:48;;;;;;;1.37;0.82;;;;;;;27.01;100.00;99755.42;1727936;80;21960;-55
2022/07/01 08:40:14;;;;;;;0.93;0.80;;;;;;;27.09;100.00;99753.14;1728634;80;21062;-57
2022/07/01 08:42:42;;;;;;;1.40;0.90;;;;;;;27.13;100.00;99752.28;1729909;80;20919;-55
2022/07/01 08:45:09;;;;;;;1.10;0.80;;;;;;;27.11;100.00;99756.08;1733919;80;21005;-57
2022/07/01 08:47:57;;;;;;;0.70;0.70;;;;;;;27.10;100.00;99754.35;1727356;80;21085;-56
2022/07/01 08:50:25;;;;;;;1.07;1.00;;;;;;;27.16;100.00;99750.52;1723184;80;21830;-57
2022/07/01 08:52:52;;;;;;;1.25;0.75;;;;;;;27.24;100.00;99755.48;1724184;80;21077;-58
2022/07/01 08:55:21;;;;;;;0.85;0.85;;;;;;;27.31;100.00;99742.66;1729582;80;21092;-57
2022/07/01 08:57:47;;;;;;;1.10;0.98;;;;;;;27.37;100.00;99746.10;1722935;80;21550;-57
2022/07/01 09:00:15;;;;;;;0.80;0.80;;;;;;;27.40;100.00;99746.23;1691258;82;21038;-56
2022/07/01 09:02:58;;;;;;;1.52;0.80;;;;;;;27.46;100.00;99744.15;1726820;80;21161;-59
2022/07/01 09:05:26;;;;;;;1.73;0.70;;;;;;;27.54;100.00;99744.13;1725095;80;21061;-61
2022/07/01 09:08:05;;;;;;;1.47;0.80;;;;;;;27.61;100.00;99737.34;1727531;80;21097;-57
2022/07/01 09:10:37;;;;;;;1.07;0.98;;;;;;;27.61;100.00;99742.34;1727868;80;21101;-58
2022/07/01 09:13:11;;;;;;;1.40;1.30;;;;;;;27.51;100.00;99738.92;1724081;80;21404;-58
2022/07/01 09:15:41;;;;;;;0.85;0.80;;;;;;;27.37;100.00;99743.34;1722835;80;21026;-60
2022/07/01 09:18:16;;;;;;;1.12;1.05;;;;;;;27.27;100.00;99747.36;1721499;80;21033;-58
2022/07/01 09:20:48;;;;;;;1.07;0.93;;;;;;;27.21;100.00;99746.71;1727816;80;21080;-58
2022/07/01 09:23:17;;;;;;;7.40;1.17;;;;;;;27.13;100.00;99753.14;1726354;80;21120;-57
2022/07/01 09:25:51;;;;;;;3.02;1.47;;;;;;;27.03;100.00;99750.59;1725934;80;21113;-61
2022/07/01 09:28:25;;;;;;;1.10;1.00;;;;;;;26.99;100.00;99745.06;1725391;80;22004;-58
2022/07/01 09:30:54;;;;;;;1.75;1.20;;;;;;;26.98;100.00;99746.62;1725185;80;21025;-58
2022/07/01 09:33:25;;;;;;;3.25;1.27;;;;;;;27.02;100.00;99737.81;1730712;80;21109;-59
2022/07/01 09:35:52;;;;;;;1.85;1.35;;;;;;;27.10;100.00;99735.02;1709156;82;21403;-57
2022/07/01 09:38:21;;;;;;;2.08;1.10;;;;;;;27.18;100.00;99734.11;1722676;80;21089;-59
2022/07/01 09:40:57;;;;;;;1.40;1.10;;;;;;;27.23;100.00;99734.94;1726279;80;21078;-57
2022/07/01 09:43:29;;;;;;;1.20;1.10;;;;;;;27.30;100.00;99741.48;1722573;80;21068;-58
2022/07/01 09:46:04;;;;;;;2.33;1.20;;;;;;;27.30;100.00;99747.02;1731527;80;21062;-58
2022/07/01 09:48:40;;;;;;;6.40;1.47;;;;;;;27.21;100.00;99740.66;1711824;80;21206;-59
2022/07/01 09:51:07;;;;;;;3.50;1.10;;;;;;;27.14;100.00;99745.72;1728722;80;21066;-60
2022/07/01 09:53:35;;;;;;;1.15;1.05;;;;;;;27.04;100.00;99745.93;1724464;80;21201;-58
2022/07/01 09:56:02;;;;;;;4.08;0.90;;;;;;;26.98;100.00;99741.96;1721481;80;21080;-59
2022/07/01 09:58:32;;;;;;;2.92;1.17;;;;;;;26.94;100.00;99735.09;1738479;80;21047;-58
2022/07/01 10:00:58;;;;;;;4.20;1.00;;;;;;;26.92;100.00;99735.78;1723597;80;21175;-57
2022/07/01 10:03:25;;;;;;;3.90;1.10;;;;;;;26.96;100.00;99736.30;1727369;80;21101;-59
2022/07/01 10:06:00;;;;;;;1.30;1.02;;;;;;;27.06;100.00;99732.77;1724077;80;21153;-58
2022/07/01 10:09:05;;;;;;;4.65;1.45;;;;;;;27.19;100.00;99730.31;1690259;80;21050;-58
2022/07/01 10:12:13;;;;;;;2.27;1.20;;;;;;;27.32;100.00;99725.55;1723706;80;21041;-58
2022/07/01 10:14:40;;;;;;;3.00;1.10;;;;;;;27.51;100.00;99725.09;1726305;80;21753;-56
2022/07/01 10:17:06;;;;;;;2.77;1.00;;;;;;;27.67;100.00;99721.38;1731015;80;21037;-59
2022/07/01 10:19:33;;;;;;;1.82;0.90;;;;;;;27.73;100.00;99731.18;1728136;80;21931;-56
2022/07/01 10:22:22;;;;;;;1.98;1.77;;;;;;;27.74;100.00;99727.89;1724530;80;21077;-56
2022/07/01 10:24:48;;;;;;;1.00;0.90;;;;;;;27.71;100.00;99726.90;1725208;80;21073;-58
2022/07/01 10:27:23;;;;;;;1.30;1.02;;;;;;;27.67;100.00;99722.25;1699269;82;21049;-58
2022/07/01 10:29:53;;;;;;;1.00;0.80;;;;;;;27.68;100.00;99725.35;1728196;80;21049;-54
2022/07/01 10:32:30;;;;;;;1.00;0.90;;;;;;;27.72;100.00;99730.87;1720169;80;21148;-54
2022/07/01 10:35:05;;;;;;;1.35;0.90;;;;;;;27.69;100.00;99724.83;1731607;80;21129;-58
2022/07/01 10:37:32;;;;;;;0.80;0.80;;;;;;;27.65;100.00;99727.09;1727907;80;21117;-58
2022/07/01 10:40:00;;;;;;;1.10;0.80;;;;;;;27.61;100.00;99727.14;1730381;80;21065;-59
2022/07/01 10:42:36;;;;;;;1.57;0.70;;;;;;;27.58;100.00;99718.34;1727730;80;21077;-56
2022/07/01 10:45:11;;;;;;;1.05;0.70;;;;;;;27.56;100.00;99719.90;1730056;80;21707;-57
2022/07/01 10:47:39;;;;;;;0.90;0.80;;;;;;;27.58;100.00;99712.28;1726818;80;20954;-55
2022/07/01 10:50:12;;;;;;;1.20;1.10;;;;;;;27.63;100.00;99708.47;1724053;80;21054;-57
2022/07/01 10:52:40;;;;;;;2.92;0.70;;;;;;;27.72;100.00;99702.35;1720627;80;20982;-57
2022/07/01 10:55:08;;;;;;;0.80;0.80;;;;;;;27.81;100.00;99699.86;1717159;80;21045;-56
2022/07/01 10:57:39;;;;;;;0.85;0.80;;;;;;;27.89;100.00;99706.70;1723245;80;21818;-58
2022/07/01 11:00:11;;;;;;;3.60;0.70;;;;;;;27.93;100.00;99691.96;1723762;80;21097;-58
2022/07/01 11:02:39;;;;;;;1.92;1.17;;;;;;;27.93;100.00;99698.36;1717517;80;21129;-54
2022/07/01 11:05:14;;;;;;;2.37;0.72;;;;;;;27.95;100.00;99704.56;1723014;80;21044;-58
2022/07/01 11:07:45;;;;;;;3.67;0.78;;;;;;;27.93;100.00;99703.89;1723986;80;20915;-57
2022/07/01 11:10:15;;;;;;;1.87;0.70;;;;;;;27.88;100.00;99702.73;1723261;80;21220;-56
2022/07/01 11:12:48;;;;;;;1.05;0.80;;;;;;;27.77;100.00;99704.89;1725349;80;20958;-55
2022/07/01 11:15:15;;;;;;;0.80;0.80;;;;;;;27.73;100.00;99699.38;1720224;80;21484;-54
2022/07/01 11:17:47;;;;;;;2.05;1.00;;;;;;;27.76;100.00;99694.87;1718799;80;21129;-57
2022/07/01 11:20:14;;;;;;;1.00;0.60;;;;;;;27.85;100.00;99695.14;1721906;80;21417;-54
2022/07/01 11:22:41;;;;;;;5.25;1.00;;;;;;;27.94;100.00;99694.55;1722285;80;21825;-54
2022/07/01 11:25:11;;;;;;;2.67;0.98;;;;;;;28.00;100.00;99695.69;1723274;80;21109;-56
2022/07/01 11:27:38;;;;;;;0.60;0.60;;;;;;;27.95;100.00;99695.41;1717231;80;21396;-58
2022/07/01 11:30:11;;;;;;;1.10;0.70;;;;;;;27.85;100.00;99696.52;1718932;80;21050;-56
2022/07/01 11:32:44;;;;;;;1.27;0.60;;;;;;;27.81;100.00;99690.19;1720284;80;20997;-59
2022/07/01 11:41:20;;;;;;;0.70;0.70;;;;;;;27.90;100.00;99693.73;1721103;80;21535;-56